sensor_id;sensor_type;location;lat;lon;timestamp;temperature;humidity
13440;DHT22;6792;57.698;11.946;2022-10-03T00:02:11;16.90;54.30
13440;DHT22;6792;57.698;11.946;2022-10-03T00:04:59;16.90;54.30
13440;DHT22;6792;57.698;11.946;2022-10-03T00:07:36;16.90;54.20
13440;DHT22;6792;57.698;11.946;2022-10-03T00:10:13;16.80;54.20
13440;DHT22;6792;57.698;11.946;2022-10-03T00:12:51;16.80;54.20
13440;DHT22;6792;57.698;11.946;2022-10-03T00:15:23;16.80;54.30
13440;DHT22;6792;57.698;11.946;2022-10-03T00:17:59;16.80;54.30
13440;DHT22;6792;57.698;11.946;2022-10-03T00:20:43;16.70;53.70
13440;DHT22;6792;57.698;11.946;2022-10-03T00:23:14;16.70;53.80
13440;DHT22;6792;57.698;11.946;2022-10-03T00:25:47;16.60;53.80
13440;DHT22;6792;57.698;11.946;2022-10-03T00:28:22;16.60;54.40
13440;DHT22;6792;57.698;11.946;2022-10-03T00:31:08;16.60;53.90
13440;DHT22;6792;57.698;11.946;2022-10-03T00:33:34;16.50;53.80
13440;DHT22;6792;57.698;11.946;2022-10-03T00:36:09;16.60;54.50
13440;DHT22;6792;57.698;11.946;2022-10-03T00:38:59;16.60;54.50
13440;DHT22;6792;57.698;11.946;2022-10-03T00:41:48;16.50;53.90
13440;DHT22;6792;57.698;11.946;2022-10-03T00:48:02;16.40;54.40
13440;DHT22;6792;57.698;11.946;2022-10-03T00:50:39;16.50;54.40
13440;DHT22;6792;57.698;11.946;2022-10-03T00:53:20;16.40;54.50
13440;DHT22;6792;57.698;11.946;2022-10-03T00:56:00;16.40;54.40
13440;DHT22;6792;57.698;11.946;2022-10-03T00:58:42;16.40;53.90
13440;DHT22;6792;57.698;11.946;2022-10-03T01:01:23;16.30;54.40
13440;DHT22;6792;57.698;11.946;2022-10-03T01:04:01;16.40;54.50
13440;DHT22;6792;57.698;11.946;2022-10-03T01:06:35;16.30;54.50
13440;DHT22;6792;57.698;11.946;2022-10-03T01:09:23;16.30;54.60
13440;DHT22;6792;57.698;11.946;2022-10-03T01:12:09;16.30;54.60
13440;DHT22;6792;57.698;11.946;2022-10-03T01:14:49;16.20;54.80
13440;DHT22;6792;57.698;11.946;2022-10-03T01:17:21;16.20;54.60
13440;DHT22;6792;57.698;11.946;2022-10-03T01:20:14;16.20;54.10
13440;DHT22;6792;57.698;11.946;2022-10-03T01:22:54;16.20;54.70
13440;DHT22;6792;57.698;11.946;2022-10-03T01:25:31;16.10;54.70
13440;DHT22;6792;57.698;11.946;2022-10-03T01:31:06;16.10;54.70
13440;DHT22;6792;57.698;11.946;2022-10-03T01:33:38;16.10;54.60
13440;DHT22;6792;57.698;11.946;2022-10-03T01:36:12;16.10;54.60
13440;DHT22;6792;57.698;11.946;2022-10-03T01:38:44;16.00;54.60
13440;DHT22;6792;57.698;11.946;2022-10-03T01:41:18;16.00;54.60
13440;DHT22;6792;57.698;11.946;2022-10-03T01:43:50;16.00;54.60
13440;DHT22;6792;57.698;11.946;2022-10-03T01:46:22;16.00;54.60
13440;DHT22;6792;57.698;11.946;2022-10-03T01:48:57;16.00;54.50
13440;DHT22;6792;57.698;11.946;2022-10-03T01:51:29;16.00;54.60
13440;DHT22;6792;57.698;11.946;2022-10-03T01:54:07;15.90;54.60
13440;DHT22;6792;57.698;11.946;2022-10-03T01:56:38;15.90;54.60
13440;DHT22;6792;57.698;11.946;2022-10-03T01:59:11;15.90;54.60
13440;DHT22;6792;57.698;11.946;2022-10-03T02:01:48;15.90;54.60
13440;DHT22;6792;57.698;11.946;2022-10-03T02:04:27;15.90;54.60
13440;DHT22;6792;57.698;11.946;2022-10-03T02:06:58;15.90;54.10
13440;DHT22;6792;57.698;11.946;2022-10-03T02:09:32;15.90;54.70
13440;DHT22;6792;57.698;11.946;2022-10-03T02:12:08;15.90;54.60
13440;DHT22;6792;57.698;11.946;2022-10-03T02:14:47;15.90;54.60
13440;DHT22;6792;57.698;11.946;2022-10-03T02:17:27;15.90;54.60
13440;DHT22;6792;57.698;11.946;2022-10-03T02:20:02;15.80;54.70
13440;DHT22;6792;57.698;11.946;2022-10-03T02:22:35;15.80;54.80
13440;DHT22;6792;57.698;11.946;2022-10-03T02:25:19;15.80;54.80
13440;DHT22;6792;57.698;11.946;2022-10-03T02:30:58;15.80;54.80
13440;DHT22;6792;57.698;11.946;2022-10-03T02:40:27;15.90;54.80
13440;DHT22;6792;57.698;11.946;2022-10-03T02:43:28;15.90;54.70
13440;DHT22;6792;57.698;11.946;2022-10-03T02:46:26;15.90;54.60
13440;DHT22;6792;57.698;11.946;2022-10-03T02:55:13;15.70;54.70
13440;DHT22;6792;57.698;11.946;2022-10-03T02:58:00;15.60;54.10
13440;DHT22;6792;57.698;11.946;2022-10-03T03:00:57;15.60;54.20
13440;DHT22;6792;57.698;11.946;2022-10-03T03:03:45;15.60;54.20
13440;DHT22;6792;57.698;11.946;2022-10-03T03:06:50;15.50;54.80
13440;DHT22;6792;57.698;11.946;2022-10-03T03:09:34;15.60;54.90
13440;DHT22;6792;57.698;11.946;2022-10-03T03:15:41;15.50;54.80
13440;DHT22;6792;57.698;11.946;2022-10-03T03:18:16;15.50;54.80
13440;DHT22;6792;57.698;11.946;2022-10-03T03:20:53;15.40;54.90
13440;DHT22;6792;57.698;11.946;2022-10-03T03:26:45;15.50;54.80
13440;DHT22;6792;57.698;11.946;2022-10-03T03:29:22;15.50;54.80
13440;DHT22;6792;57.698;11.946;2022-10-03T03:31:53;15.50;54.70
13440;DHT22;6792;57.698;11.946;2022-10-03T03:34:27;15.50;54.70
13440;DHT22;6792;57.698;11.946;2022-10-03T03:37:00;15.50;54.70
13440;DHT22;6792;57.698;11.946;2022-10-03T03:39:43;15.40;54.60
13440;DHT22;6792;57.698;11.946;2022-10-03T03:42:23;15.50;54.70
13440;DHT22;6792;57.698;11.946;2022-10-03T03:45:03;15.50;54.70
13440;DHT22;6792;57.698;11.946;2022-10-03T03:50:33;15.50;54.70
13440;DHT22;6792;57.698;11.946;2022-10-03T03:53:31;15.50;55.10
13440;DHT22;6792;57.698;11.946;2022-10-03T03:56:04;15.20;54.00
13440;DHT22;6792;57.698;11.946;2022-10-03T03:58:38;15.50;54.90
13440;DHT22;6792;57.698;11.946;2022-10-03T04:01:19;15.50;54.80
13440;DHT22;6792;57.698;11.946;2022-10-03T04:03:56;15.50;54.80
13440;DHT22;6792;57.698;11.946;2022-10-03T04:06:39;15.50;54.80
13440;DHT22;6792;57.698;11.946;2022-10-03T04:12:11;15.40;54.80
13440;DHT22;6792;57.698;11.946;2022-10-03T04:17:54;15.40;54.90
13440;DHT22;6792;57.698;11.946;2022-10-03T04:21:00;15.40;54.40
13440;DHT22;6792;57.698;11.946;2022-10-03T04:23:46;15.40;55.10
13440;DHT22;6792;57.698;11.946;2022-10-03T04:26:27;15.40;54.60
13440;DHT22;6792;57.698;11.946;2022-10-03T04:29:08;15.40;55.20
13440;DHT22;6792;57.698;11.946;2022-10-03T04:31:42;15.40;55.20
13440;DHT22;6792;57.698;11.946;2022-10-03T04:34:25;15.30;55.00
13440;DHT22;6792;57.698;11.946;2022-10-03T04:37:25;15.40;55.10
13440;DHT22;6792;57.698;11.946;2022-10-03T04:40:09;15.30;54.50
13440;DHT22;6792;57.698;11.946;2022-10-03T04:42:44;15.40;55.10
13440;DHT22;6792;57.698;11.946;2022-10-03T04:45:33;15.30;55.10
13440;DHT22;6792;57.698;11.946;2022-10-03T04:48:05;15.40;54.60
13440;DHT22;6792;57.698;11.946;2022-10-03T04:50:39;15.40;55.20
13440;DHT22;6792;57.698;11.946;2022-10-03T04:53:22;15.40;55.20
13440;DHT22;6792;57.698;11.946;2022-10-03T04:55:55;15.30;54.50
13440;DHT22;6792;57.698;11.946;2022-10-03T04:58:35;15.40;55.20
13440;DHT22;6792;57.698;11.946;2022-10-03T05:01:13;15.40;55.10
13440;DHT22;6792;57.698;11.946;2022-10-03T05:03:51;15.40;55.10
13440;DHT22;6792;57.698;11.946;2022-10-03T05:06:29;15.40;54.60
13440;DHT22;6792;57.698;11.946;2022-10-03T05:09:01;15.40;55.10
13440;DHT22;6792;57.698;11.946;2022-10-03T05:11:42;15.40;55.10
13440;DHT22;6792;57.698;11.946;2022-10-03T05:14:15;15.40;55.20
13440;DHT22;6792;57.698;11.946;2022-10-03T05:16:46;15.40;55.10
13440;DHT22;6792;57.698;11.946;2022-10-03T05:19:39;15.40;55.20
13440;DHT22;6792;57.698;11.946;2022-10-03T05:22:26;15.40;54.70
13440;DHT22;6792;57.698;11.946;2022-10-03T05:25:00;15.40;55.30
13440;DHT22;6792;57.698;11.946;2022-10-03T05:27:35;15.40;54.80
13440;DHT22;6792;57.698;11.946;2022-10-03T05:30:08;15.40;54.80
13440;DHT22;6792;57.698;11.946;2022-10-03T05:32:40;15.40;55.30
13440;DHT22;6792;57.698;11.946;2022-10-03T05:38:36;15.40;55.30
13440;DHT22;6792;57.698;11.946;2022-10-03T05:41:10;15.40;55.30
13440;DHT22;6792;57.698;11.946;2022-10-03T05:43:52;15.50;55.30
13440;DHT22;6792;57.698;11.946;2022-10-03T05:46:31;15.50;55.30
13440;DHT22;6792;57.698;11.946;2022-10-03T05:51:54;15.50;55.40
13440;DHT22;6792;57.698;11.946;2022-10-03T05:54:50;15.50;55.40
13440;DHT22;6792;57.698;11.946;2022-10-03T06:00:37;15.60;55.40
13440;DHT22;6792;57.698;11.946;2022-10-03T06:03:47;15.60;55.40
13440;DHT22;6792;57.698;11.946;2022-10-03T06:06:20;15.60;55.50
13440;DHT22;6792;57.698;11.946;2022-10-03T06:12:22;15.60;55.60
13440;DHT22;6792;57.698;11.946;2022-10-03T06:15:13;15.60;55.60
13440;DHT22;6792;57.698;11.946;2022-10-03T06:21:12;15.60;55.70
13440;DHT22;6792;57.698;11.946;2022-10-03T06:26:55;15.60;55.90
13440;DHT22;6792;57.698;11.946;2022-10-03T06:52:36;15.80;56.30
13440;DHT22;6792;57.698;11.946;2022-10-03T06:58:43;15.90;55.90
13440;DHT22;6792;57.698;11.946;2022-10-03T07:07:43;16.10;55.90
13440;DHT22;6792;57.698;11.946;2022-10-03T07:10:29;16.10;56.30
13440;DHT22;6792;57.698;11.946;2022-10-03T07:13:09;16.20;56.20
13440;DHT22;6792;57.698;11.946;2022-10-03T07:16:07;16.30;56.20
13440;DHT22;6792;57.698;11.946;2022-10-03T07:19:12;16.40;56.20
13440;DHT22;6792;57.698;11.946;2022-10-03T07:28:16;16.40;56.10
13440;DHT22;6792;57.698;11.946;2022-10-03T07:30:54;16.40;57.30
13440;DHT22;6792;57.698;11.946;2022-10-03T07:33:53;16.50;56.60
13440;DHT22;6792;57.698;11.946;2022-10-03T07:36:32;16.60;56.60
13440;DHT22;6792;57.698;11.946;2022-10-03T07:40:02;16.70;56.70
13440;DHT22;6792;57.698;11.946;2022-10-03T07:42:53;16.80;56.20
13440;DHT22;6792;57.698;11.946;2022-10-03T07:45:44;16.80;56.70
13440;DHT22;6792;57.698;11.946;2022-10-03T07:48:50;16.90;56.80
13440;DHT22;6792;57.698;11.946;2022-10-03T07:51:28;17.00;56.10
13440;DHT22;6792;57.698;11.946;2022-10-03T07:57:32;17.20;56.00
13440;DHT22;6792;57.698;11.946;2022-10-03T08:00:12;17.30;55.90
13440;DHT22;6792;57.698;11.946;2022-10-03T08:03:01;17.30;56.60
13440;DHT22;6792;57.698;11.946;2022-10-03T08:05:49;17.40;56.50
13440;DHT22;6792;57.698;11.946;2022-10-03T08:14:18;17.60;55.80
13440;DHT22;6792;57.698;11.946;2022-10-03T08:17:04;17.70;56.30
13440;DHT22;6792;57.698;11.946;2022-10-03T08:22:38;17.80;55.60
13440;DHT22;6792;57.698;11.946;2022-10-03T08:25:28;17.80;56.20
13440;DHT22;6792;57.698;11.946;2022-10-03T08:34:47;18.00;56.30
13440;DHT22;6792;57.698;11.946;2022-10-03T08:47:30;18.30;55.80
13440;DHT22;6792;57.698;11.946;2022-10-03T08:50:19;18.40;55.80
13440;DHT22;6792;57.698;11.946;2022-10-03T08:53:10;18.50;55.60
13440;DHT22;6792;57.698;11.946;2022-10-03T08:55:47;18.50;55.40
13440;DHT22;6792;57.698;11.946;2022-10-03T09:01:28;18.70;55.10
13440;DHT22;6792;57.698;11.946;2022-10-03T09:14:08;18.90;54.60
13440;DHT22;6792;57.698;11.946;2022-10-03T09:16:51;19.00;54.50
13440;DHT22;6792;57.698;11.946;2022-10-03T09:19:38;19.00;54.30
13440;DHT22;6792;57.698;11.946;2022-10-03T09:22:31;19.00;54.20
13440;DHT22;6792;57.698;11.946;2022-10-03T09:25:29;19.10;54.10
13440;DHT22;6792;57.698;11.946;2022-10-03T09:31:41;19.10;53.40
13440;DHT22;6792;57.698;11.946;2022-10-03T09:34:26;19.10;54.00
13440;DHT22;6792;57.698;11.946;2022-10-03T09:47:02;19.30;53.30
13440;DHT22;6792;57.698;11.946;2022-10-03T09:50:33;19.40;53.10
13440;DHT22;6792;57.698;11.946;2022-10-03T09:53:24;19.30;52.50
13440;DHT22;6792;57.698;11.946;2022-10-03T09:56:10;19.40;52.40
13440;DHT22;6792;57.698;11.946;2022-10-03T09:58:51;19.50;52.70
13440;DHT22;6792;57.698;11.946;2022-10-03T10:01:27;19.50;52.40
13440;DHT22;6792;57.698;11.946;2022-10-03T10:04:28;19.50;51.50
13440;DHT22;6792;57.698;11.946;2022-10-03T10:10:13;19.60;51.90
13440;DHT22;6792;57.698;11.946;2022-10-03T10:13:07;19.60;51.10
13440;DHT22;6792;57.698;11.946;2022-10-03T10:18:43;19.70;51.30
13440;DHT22;6792;57.698;11.946;2022-10-03T10:28:05;19.70;50.90
13440;DHT22;6792;57.698;11.946;2022-10-03T10:34:28;19.70;50.60
13440;DHT22;6792;57.698;11.946;2022-10-03T10:37:29;19.80;50.60
13440;DHT22;6792;57.698;11.946;2022-10-03T10:43:46;19.90;49.50
13440;DHT22;6792;57.698;11.946;2022-10-03T10:50:03;19.90;49.90
13440;DHT22;6792;57.698;11.946;2022-10-03T10:56:21;20.00;49.50
13440;DHT22;6792;57.698;11.946;2022-10-03T11:02:46;20.10;49.50
13440;DHT22;6792;57.698;11.946;2022-10-03T11:18:45;20.20;49.30
13440;DHT22;6792;57.698;11.946;2022-10-03T11:21:37;20.30;48.50
13440;DHT22;6792;57.698;11.946;2022-10-03T11:24:49;20.40;49.30
13440;DHT22;6792;57.698;11.946;2022-10-03T11:35:11;20.70;48.70
13440;DHT22;6792;57.698;11.946;2022-10-03T11:37:44;20.80;48.50
13440;DHT22;6792;57.698;11.946;2022-10-03T11:40:28;20.80;48.30
13440;DHT22;6792;57.698;11.946;2022-10-03T11:45:58;20.90;48.10
13440;DHT22;6792;57.698;11.946;2022-10-03T11:48:35;21.00;48.00
13440;DHT22;6792;57.698;11.946;2022-10-03T11:51:07;21.10;47.70
13440;DHT22;6792;57.698;11.946;2022-10-03T11:53:41;21.20;47.00
13440;DHT22;6792;57.698;11.946;2022-10-03T12:02:30;21.40;47.00
13440;DHT22;6792;57.698;11.946;2022-10-03T12:05:04;21.60;47.00
13440;DHT22;6792;57.698;11.946;2022-10-03T12:07:41;21.60;46.70
13440;DHT22;6792;57.698;11.946;2022-10-03T12:10:44;21.70;46.70
13440;DHT22;6792;57.698;11.946;2022-10-03T12:13:16;21.70;46.60
13440;DHT22;6792;57.698;11.946;2022-10-03T12:15:48;21.80;46.40
13440;DHT22;6792;57.698;11.946;2022-10-03T12:18:23;21.90;46.20
13440;DHT22;6792;57.698;11.946;2022-10-03T12:21:09;22.00;45.90
13440;DHT22;6792;57.698;11.946;2022-10-03T12:23:49;22.00;45.80
13440;DHT22;6792;57.698;11.946;2022-10-03T12:26:22;22.10;45.60
13440;DHT22;6792;57.698;11.946;2022-10-03T12:28:52;22.20;45.50
13440;DHT22;6792;57.698;11.946;2022-10-03T12:31:24;22.20;45.30
13440;DHT22;6792;57.698;11.946;2022-10-03T12:33:57;22.30;45.20
13440;DHT22;6792;57.698;11.946;2022-10-03T12:39:17;22.50;44.20
13440;DHT22;6792;57.698;11.946;2022-10-03T12:41:55;22.60;44.70
13440;DHT22;6792;57.698;11.946;2022-10-03T12:44:32;22.70;44.50
13440;DHT22;6792;57.698;11.946;2022-10-03T12:47:06;22.70;43.50
13440;DHT22;6792;57.698;11.946;2022-10-03T12:49:42;22.70;44.00
13440;DHT22;6792;57.698;11.946;2022-10-03T12:52:17;22.80;44.00
13440;DHT22;6792;57.698;11.946;2022-10-03T12:54:51;22.80;43.20
13440;DHT22;6792;57.698;11.946;2022-10-03T12:57:43;22.90;43.60
13440;DHT22;6792;57.698;11.946;2022-10-03T13:00:15;23.00;43.50
13440;DHT22;6792;57.698;11.946;2022-10-03T13:02:46;23.00;42.90
13440;DHT22;6792;57.698;11.946;2022-10-03T13:05:28;23.10;43.40
13440;DHT22;6792;57.698;11.946;2022-10-03T13:07:59;23.20;43.70
13440;DHT22;6792;57.698;11.946;2022-10-03T13:10:36;23.20;42.90
13440;DHT22;6792;57.698;11.946;2022-10-03T13:13:18;23.20;42.60
13440;DHT22;6792;57.698;11.946;2022-10-03T13:16:00;23.20;42.50
13440;DHT22;6792;57.698;11.946;2022-10-03T13:18:47;23.20;42.60
13440;DHT22;6792;57.698;11.946;2022-10-03T13:21:22;23.30;42.50
13440;DHT22;6792;57.698;11.946;2022-10-03T13:23:55;23.40;42.30
13440;DHT22;6792;57.698;11.946;2022-10-03T13:26:34;23.60;42.00
13440;DHT22;6792;57.698;11.946;2022-10-03T13:29:21;23.90;41.70
13440;DHT22;6792;57.698;11.946;2022-10-03T13:35:02;24.30;40.90
13440;DHT22;6792;57.698;11.946;2022-10-03T13:38:12;24.40;40.50
13440;DHT22;6792;57.698;11.946;2022-10-03T13:40:46;24.20;40.30
13440;DHT22;6792;57.698;11.946;2022-10-03T13:43:18;24.10;40.50
13440;DHT22;6792;57.698;11.946;2022-10-03T13:45:48;24.00;40.40
13440;DHT22;6792;57.698;11.946;2022-10-03T13:48:22;24.00;40.40
13440;DHT22;6792;57.698;11.946;2022-10-03T13:50:58;23.90;40.50
13440;DHT22;6792;57.698;11.946;2022-10-03T13:53:53;23.90;40.50
13440;DHT22;6792;57.698;11.946;2022-10-03T13:56:44;23.80;40.60
13440;DHT22;6792;57.698;11.946;2022-10-03T13:59:28;23.70;40.80
13440;DHT22;6792;57.698;11.946;2022-10-03T14:02:04;23.60;40.90
13440;DHT22;6792;57.698;11.946;2022-10-03T14:04:50;23.40;40.30
13440;DHT22;6792;57.698;11.946;2022-10-03T14:07:25;23.30;40.50
13440;DHT22;6792;57.698;11.946;2022-10-03T14:13:09;23.00;41.20
13440;DHT22;6792;57.698;11.946;2022-10-03T14:15:46;22.80;41.40
13440;DHT22;6792;57.698;11.946;2022-10-03T14:18:27;22.60;41.00
13440;DHT22;6792;57.698;11.946;2022-10-03T14:21:21;22.50;41.70
13440;DHT22;6792;57.698;11.946;2022-10-03T14:23:52;22.40;41.80
13440;DHT22;6792;57.698;11.946;2022-10-03T14:26:26;22.30;42.00
13440;DHT22;6792;57.698;11.946;2022-10-03T14:28:59;22.20;42.10
13440;DHT22;6792;57.698;11.946;2022-10-03T14:31:32;22.00;41.60
13440;DHT22;6792;57.698;11.946;2022-10-03T14:34:05;22.00;42.30
13440;DHT22;6792;57.698;11.946;2022-10-03T14:36:38;21.80;41.70
13440;DHT22;6792;57.698;11.946;2022-10-03T14:39:17;21.70;42.40
13440;DHT22;6792;57.698;11.946;2022-10-03T14:44:44;21.50;42.00
13440;DHT22;6792;57.698;11.946;2022-10-03T14:47:16;21.50;42.70
13440;DHT22;6792;57.698;11.946;2022-10-03T14:49:52;21.40;42.80
13440;DHT22;6792;57.698;11.946;2022-10-03T14:52:29;21.40;42.90
13440;DHT22;6792;57.698;11.946;2022-10-03T14:55:07;21.30;42.90
13440;DHT22;6792;57.698;11.946;2022-10-03T14:57:35;21.30;42.90
13440;DHT22;6792;57.698;11.946;2022-10-03T15:00:32;21.20;43.00
13440;DHT22;6792;57.698;11.946;2022-10-03T15:03:12;21.20;42.50
13440;DHT22;6792;57.698;11.946;2022-10-03T15:06:03;21.10;43.20
13440;DHT22;6792;57.698;11.946;2022-10-03T15:08:35;21.10;42.70
13440;DHT22;6792;57.698;11.946;2022-10-03T15:11:07;21.00;43.40
13440;DHT22;6792;57.698;11.946;2022-10-03T15:13:41;20.90;42.80
13440;DHT22;6792;57.698;11.946;2022-10-03T15:16:13;20.90;43.50
13440;DHT22;6792;57.698;11.946;2022-10-03T15:18:49;20.80;43.60
13440;DHT22;6792;57.698;11.946;2022-10-03T15:21:19;20.80;43.60
13440;DHT22;6792;57.698;11.946;2022-10-03T15:23:52;20.80;43.70
13440;DHT22;6792;57.698;11.946;2022-10-03T15:26:23;20.80;43.20
13440;DHT22;6792;57.698;11.946;2022-10-03T15:28:56;20.80;43.70
13440;DHT22;6792;57.698;11.946;2022-10-03T15:31:32;20.80;43.80
13440;DHT22;6792;57.698;11.946;2022-10-03T15:34:05;20.70;43.20
13440;DHT22;6792;57.698;11.946;2022-10-03T15:36:37;20.70;43.80
13440;DHT22;6792;57.698;11.946;2022-10-03T15:39:16;20.70;43.90
13440;DHT22;6792;57.698;11.946;2022-10-03T15:41:54;20.70;43.80
13440;DHT22;6792;57.698;11.946;2022-10-03T15:44:28;20.70;43.90
13440;DHT22;6792;57.698;11.946;2022-10-03T15:47:03;20.60;43.80
13440;DHT22;6792;57.698;11.946;2022-10-03T15:49:35;20.60;43.90
13440;DHT22;6792;57.698;11.946;2022-10-03T15:52:14;20.60;43.90
13440;DHT22;6792;57.698;11.946;2022-10-03T15:54:46;20.60;43.40
13440;DHT22;6792;57.698;11.946;2022-10-03T15:57:20;20.60;44.10
13440;DHT22;6792;57.698;11.946;2022-10-03T15:59:53;20.60;44.00
13440;DHT22;6792;57.698;11.946;2022-10-03T16:02:25;20.60;44.00
13440;DHT22;6792;57.698;11.946;2022-10-03T16:04:56;20.60;44.20
13440;DHT22;6792;57.698;11.946;2022-10-03T16:07:32;20.50;44.10
13440;DHT22;6792;57.698;11.946;2022-10-03T16:10:08;20.50;44.10
13440;DHT22;6792;57.698;11.946;2022-10-03T16:12:50;20.50;44.20
13440;DHT22;6792;57.698;11.946;2022-10-03T16:15:24;20.50;44.10
13440;DHT22;6792;57.698;11.946;2022-10-03T16:17:58;20.50;44.30
13440;DHT22;6792;57.698;11.946;2022-10-03T16:20:33;20.40;44.20
13440;DHT22;6792;57.698;11.946;2022-10-03T16:23:06;20.40;44.30
13440;DHT22;6792;57.698;11.946;2022-10-03T16:25:39;20.30;43.70
13440;DHT22;6792;57.698;11.946;2022-10-03T16:28:11;20.40;44.40
13440;DHT22;6792;57.698;11.946;2022-10-03T16:30:43;20.40;44.40
13440;DHT22;6792;57.698;11.946;2022-10-03T16:33:15;20.30;43.80
13440;DHT22;6792;57.698;11.946;2022-10-03T16:35:47;20.30;44.40
13440;DHT22;6792;57.698;11.946;2022-10-03T16:38:20;20.30;44.40
13440;DHT22;6792;57.698;11.946;2022-10-03T16:40:56;20.30;44.50
13440;DHT22;6792;57.698;11.946;2022-10-03T16:43:27;20.30;44.50
13440;DHT22;6792;57.698;11.946;2022-10-03T16:45:59;20.20;44.50
13440;DHT22;6792;57.698;11.946;2022-10-03T16:48:31;20.20;44.00
13440;DHT22;6792;57.698;11.946;2022-10-03T16:51:19;20.20;44.60
13440;DHT22;6792;57.698;11.946;2022-10-03T16:53:50;20.10;44.70
13440;DHT22;6792;57.698;11.946;2022-10-03T16:56:22;20.10;44.70
13440;DHT22;6792;57.698;11.946;2022-10-03T16:59:03;20.10;44.80
13440;DHT22;6792;57.698;11.946;2022-10-03T17:01:31;20.00;44.70
13440;DHT22;6792;57.698;11.946;2022-10-03T17:04:19;20.00;44.90
13440;DHT22;6792;57.698;11.946;2022-10-03T17:06:49;19.90;44.80
13440;DHT22;6792;57.698;11.946;2022-10-03T17:09:23;19.80;45.00
13440;DHT22;6792;57.698;11.946;2022-10-03T17:11:56;19.80;45.00
13440;DHT22;6792;57.698;11.946;2022-10-03T17:14:32;19.80;45.10
13440;DHT22;6792;57.698;11.946;2022-10-03T17:19:47;19.80;45.10
13440;DHT22;6792;57.698;11.946;2022-10-03T17:22:18;19.80;45.20
13440;DHT22;6792;57.698;11.946;2022-10-03T17:24:51;19.70;45.20
13440;DHT22;6792;57.698;11.946;2022-10-03T17:27:28;19.70;45.30
13440;DHT22;6792;57.698;11.946;2022-10-03T17:30:00;19.70;45.30
13440;DHT22;6792;57.698;11.946;2022-10-03T17:32:34;19.70;45.00
13440;DHT22;6792;57.698;11.946;2022-10-03T17:35:09;19.60;45.40
13440;DHT22;6792;57.698;11.946;2022-10-03T17:38:01;19.60;45.50
13440;DHT22;6792;57.698;11.946;2022-10-03T17:40:42;19.60;45.50
13440;DHT22;6792;57.698;11.946;2022-10-03T17:43:15;19.50;45.70
13440;DHT22;6792;57.698;11.946;2022-10-03T17:45:46;19.50;45.70
13440;DHT22;6792;57.698;11.946;2022-10-03T17:48:20;19.50;45.80
13440;DHT22;6792;57.698;11.946;2022-10-03T17:50:57;19.50;45.80
13440;DHT22;6792;57.698;11.946;2022-10-03T17:53:29;19.50;45.90
13440;DHT22;6792;57.698;11.946;2022-10-03T17:56:03;19.50;46.00
13440;DHT22;6792;57.698;11.946;2022-10-03T17:58:36;19.50;46.00
13440;DHT22;6792;57.698;11.946;2022-10-03T18:01:09;19.40;46.00
13440;DHT22;6792;57.698;11.946;2022-10-03T18:03:45;19.40;46.10
13440;DHT22;6792;57.698;11.946;2022-10-03T18:06:41;19.40;46.10
13440;DHT22;6792;57.698;11.946;2022-10-03T18:09:23;19.40;46.30
13440;DHT22;6792;57.698;11.946;2022-10-03T18:11:57;19.30;46.40
13440;DHT22;6792;57.698;11.946;2022-10-03T18:14:31;19.30;46.50
13440;DHT22;6792;57.698;11.946;2022-10-03T18:17:05;19.20;46.00
13440;DHT22;6792;57.698;11.946;2022-10-03T18:19:50;19.20;46.60
13440;DHT22;6792;57.698;11.946;2022-10-03T18:22:22;19.20;46.60
13440;DHT22;6792;57.698;11.946;2022-10-03T18:24:54;19.20;46.70
13440;DHT22;6792;57.698;11.946;2022-10-03T18:30:41;19.10;46.40
13440;DHT22;6792;57.698;11.946;2022-10-03T18:33:15;19.00;47.00
13440;DHT22;6792;57.698;11.946;2022-10-03T18:35:47;19.00;47.70
13440;DHT22;6792;57.698;11.946;2022-10-03T18:38:20;19.00;47.10
13440;DHT22;6792;57.698;11.946;2022-10-03T18:40:52;19.00;47.30
13440;DHT22;6792;57.698;11.946;2022-10-03T18:43:33;19.00;47.30
13440;DHT22;6792;57.698;11.946;2022-10-03T18:46:12;18.90;47.40
13440;DHT22;6792;57.698;11.946;2022-10-03T18:48:58;18.90;47.40
13440;DHT22;6792;57.698;11.946;2022-10-03T18:51:33;18.90;47.50
13440;DHT22;6792;57.698;11.946;2022-10-03T18:54:12;18.80;47.50
13440;DHT22;6792;57.698;11.946;2022-10-03T18:56:39;18.70;47.10
13440;DHT22;6792;57.698;11.946;2022-10-03T18:59:16;18.70;47.20
13440;DHT22;6792;57.698;11.946;2022-10-03T19:01:50;18.70;48.40
13440;DHT22;6792;57.698;11.946;2022-10-03T19:04:30;18.70;47.40
13440;DHT22;6792;57.698;11.946;2022-10-03T19:07:00;18.60;47.50
13440;DHT22;6792;57.698;11.946;2022-10-03T19:09:33;18.60;48.10
13440;DHT22;6792;57.698;11.946;2022-10-03T19:12:07;18.60;48.10
13440;DHT22;6792;57.698;11.946;2022-10-03T19:14:39;18.60;48.20
13440;DHT22;6792;57.698;11.946;2022-10-03T19:17:17;18.60;48.40
13440;DHT22;6792;57.698;11.946;2022-10-03T19:19:53;18.50;47.80
13440;DHT22;6792;57.698;11.946;2022-10-03T19:22:27;18.50;48.40
13440;DHT22;6792;57.698;11.946;2022-10-03T19:24:59;18.50;48.40
13440;DHT22;6792;57.698;11.946;2022-10-03T19:27:41;18.40;48.40
13440;DHT22;6792;57.698;11.946;2022-10-03T19:30:16;18.40;48.50
13440;DHT22;6792;57.698;11.946;2022-10-03T19:32:51;18.40;48.60
13440;DHT22;6792;57.698;11.946;2022-10-03T19:35:21;18.30;48.60
13440;DHT22;6792;57.698;11.946;2022-10-03T19:37:54;18.30;48.70
13440;DHT22;6792;57.698;11.946;2022-10-03T19:40:31;18.30;48.70
13440;DHT22;6792;57.698;11.946;2022-10-03T19:43:11;18.30;48.80
13440;DHT22;6792;57.698;11.946;2022-10-03T19:45:35;18.20;48.90
13440;DHT22;6792;57.698;11.946;2022-10-03T19:48:09;18.20;48.90
13440;DHT22;6792;57.698;11.946;2022-10-03T19:50:38;18.10;48.50
13440;DHT22;6792;57.698;11.946;2022-10-03T19:53:12;18.10;49.20
13440;DHT22;6792;57.698;11.946;2022-10-03T19:55:41;18.10;49.20
13440;DHT22;6792;57.698;11.946;2022-10-03T19:58:14;18.00;49.20
13440;DHT22;6792;57.698;11.946;2022-10-03T20:00:51;18.00;49.30
13440;DHT22;6792;57.698;11.946;2022-10-03T20:03:27;17.90;49.40
13440;DHT22;6792;57.698;11.946;2022-10-03T20:08:43;17.90;49.00
13440;DHT22;6792;57.698;11.946;2022-10-03T20:11:28;17.90;49.60
13440;DHT22;6792;57.698;11.946;2022-10-03T20:13:59;17.80;49.10
13440;DHT22;6792;57.698;11.946;2022-10-03T20:16:31;17.80;49.80
13440;DHT22;6792;57.698;11.946;2022-10-03T20:19:07;17.80;49.80
13440;DHT22;6792;57.698;11.946;2022-10-03T20:21:37;17.70;49.80
13440;DHT22;6792;57.698;11.946;2022-10-03T20:24:10;17.70;49.90
13440;DHT22;6792;57.698;11.946;2022-10-03T20:26:44;17.70;50.00
13440;DHT22;6792;57.698;11.946;2022-10-03T20:29:21;17.60;49.90
13440;DHT22;6792;57.698;11.946;2022-10-03T20:31:50;17.60;50.10
13440;DHT22;6792;57.698;11.946;2022-10-03T20:34:23;17.50;49.60
13440;DHT22;6792;57.698;11.946;2022-10-03T20:36:56;17.50;50.20